KSGF

Springfield-Branson National Airport

Springfield, Missouri, USA
METAR KSGF 140239Z 02010KT 2 1/2SM -RA BR OVC004 09/08 A2990 RMK AO2 P0004 T00940078
Observed Flight Rules
Dec-14 @ 02:39 UTC (26 minutes ago) Instrument Flight Rules
Wind Visibility Clouds Conditions
20° at 10 knots 2 1/2 miles
  • Overcast at 400' AGL
  • Light Rain
  • Mist
Temperatures Readings Precipitation
Current 9°C / 48°F
Dewpoint 8°C / 46°F
Humidity 94%
Altimeter 29.9" Hg
Pressure 1013 hPa
Elevation 390
Current Rain 0.04
METAR KSGF 140239Z 02010KT 2 1/2SM -RA BR OVC004 09/08 A2990 RMK AO2 P0004 T00940078
Observed Flight Rules
Dec-14 @ 02:39 UTC
(26 minutes ago)
LIFR
Wind Visibility
20° at 10 knots 2 1/2 miles
Clouds
  • Overcast at 400' AGL
Conditions
  • Light Rain
  • Mist
Temperature Dewpoint
9°C / 48°F 8°C / 46°F
Humidity Altimeter Pressure
94% 29.9" Hg 1013 hPa
Current Rain
0.04